Time;durP1;ratioP1;P1;durP2;ratioP2;P2;SDS_P1;SDS_P2;PMS_P1;PMS_P2;Temp;Humidity;BMP_temperature;BMP_pressure;BME280_temperature;BME280_humidity;BME280_pressure;Samples;Min_cycle;Max_cycle;Signal;HPM_P1;HPM_P2
2022/07/31 00:02:22;;;;;;;5.57;2.58;;;;;;;;;;6192984;23;20080;-96
2022/07/31 00:04:48;;;;;;;5.72;2.40;;;;;;;;;;6193220;23;20437;-96
2022/07/31 00:07:14;;;;;;;5.88;3.22;;;;;;;;;;6193957;23;20059;-96
2022/07/31 00:09:40;;;;;;;4.50;2.70;;;;;;;;;;6191336;23;20066;-96
2022/07/31 00:12:06;;;;;;;3.72;2.78;;;;;;;;;;6193365;23;20064;-96
2022/07/31 00:14:32;;;;;;;8.15;3.00;;;;;;;;;;6191771;23;20023;-96
2022/07/31 00:16:59;;;;;;;4.10;2.28;;;;;;;;;;6169167;23;20009;-96
2022/07/31 00:19:25;;;;;;;6.30;2.80;;;;;;;;;;6193163;23;20192;-96
2022/07/31 00:21:51;;;;;;;8.10;2.75;;;;;;;;;;6219214;23;20063;-96
2022/07/31 00:24:17;;;;;;;6.00;2.50;;;;;;;;;;6193121;23;20083;-96
2022/07/31 00:26:44;;;;;;;6.47;2.97;;;;;;;;;;6191651;23;20012;-96
2022/07/31 00:29:10;;;;;;;4.57;2.70;;;;;;;;;;6192778;23;20460;-96
2022/07/31 00:31:36;;;;;;;4.35;2.88;;;;;;;;;;6194135;23;20012;-96
2022/07/31 00:34:02;;;;;;;8.95;2.85;;;;;;;;;;6194287;23;20350;-96
2022/07/31 00:36:28;;;;;;;4.05;2.97;;;;;;;;;;6193417;23;20019;-95
2022/07/31 00:38:54;;;;;;;8.25;2.97;;;;;;;;;;6193331;23;20000;-94
2022/07/31 00:41:21;;;;;;;10.02;3.00;;;;;;;;;;6192973;23;20008;-96
2022/07/31 00:43:47;;;;;;;3.25;2.67;;;;;;;;;;6193245;23;20021;-96
2022/07/31 00:46:13;;;;;;;8.02;3.47;;;;;;;;;;6193208;23;20198;-96
2022/07/31 00:48:39;;;;;;;5.30;3.35;;;;;;;;;;6192760;23;20376;-95
2022/07/31 00:51:05;;;;;;;7.30;2.90;;;;;;;;;;6195580;23;20483;-96
2022/07/31 00:53:32;;;;;;;5.28;2.60;;;;;;;;;;6194131;23;20008;-95
2022/07/31 00:55:59;;;;;;;7.00;3.05;;;;;;;;;;6193660;23;20035;-96
2022/07/31 00:58:26;;;;;;;4.88;2.97;;;;;;;;;;6241993;22;20023;-95
2022/07/31 01:00:52;;;;;;;7.75;2.88;;;;;;;;;;6199827;23;20019;-94
2022/07/31 01:03:18;;;;;;;5.80;2.97;;;;;;;;;;6225735;23;20035;-96
2022/07/31 01:05:45;;;;;;;6.55;3.35;;;;;;;;;;6224007;23;20440;-96
2022/07/31 01:08:11;;;;;;;9.27;2.95;;;;;;;;;;6224276;23;20004;-94
2022/07/31 01:10:48;;;;;;;4.60;2.70;;;;;;;;;;6223712;23;20183;-95
2022/07/31 01:13:23;;;;;;;5.22;3.72;;;;;;;;;;6223592;23;20012;-96
2022/07/31 01:15:50;;;;;;;7.05;2.97;;;;;;;;;;6225017;23;20027;-95
2022/07/31 01:18:16;;;;;;;10.05;3.00;;;;;;;;;;6223429;23;20008;-96
2022/07/31 01:20:43;;;;;;;5.75;3.10;;;;;;;;;;6224581;23;20000;-95
2022/07/31 01:23:15;;;;;;;6.65;2.92;;;;;;;;;;6224302;23;20004;-96
2022/07/31 01:25:58;;;;;;;4.85;3.08;;;;;;;;;;6223539;23;20309;-94
2022/07/31 01:28:47;;;;;;;3.65;2.58;;;;;;;;;;6251850;23;20008;-96
2022/07/31 01:31:16;;;;;;;5.28;2.67;;;;;;;;;;6224633;23;20500;-96
2022/07/31 01:33:46;;;;;;;7.75;2.95;;;;;;;;;;6225154;23;20385;-96
2022/07/31 01:36:15;;;;;;;7.72;2.78;;;;;;;;;;6225184;23;20019;-94
2022/07/31 01:38:44;;;;;;;4.90;2.65;;;;;;;;;;6224514;23;20004;-96
2022/07/31 01:41:16;;;;;;;10.85;3.17;;;;;;;;;;6221254;23;20356;-95
2022/07/31 01:43:43;;;;;;;8.00;2.97;;;;;;;;;;6224832;23;20000;-96
2022/07/31 01:46:14;;;;;;;7.88;3.58;;;;;;;;;;6223371;23;20036;-96
2022/07/31 01:48:41;;;;;;;5.28;3.08;;;;;;;;;;6224057;23;20064;-96
2022/07/31 01:51:07;;;;;;;5.30;3.13;;;;;;;;;;6224950;23;20015;-96
2022/07/31 01:53:35;;;;;;;6.22;3.33;;;;;;;;;;6248989;23;20062;-96
2022/07/31 01:56:01;;;;;;;4.80;3.28;;;;;;;;;;6219933;23;20031;-96
2022/07/31 01:58:29;;;;;;;7.25;3.00;;;;;;;;;;6204426;22;20040;-96
2022/07/31 02:00:57;;;;;;;10.57;2.80;;;;;;;;;;6190683;23;20001;-96
2022/07/31 02:03:24;;;;;;;7.63;3.30;;;;;;;;;;6191185;23;20007;-96
2022/07/31 02:05:51;;;;;;;4.20;3.08;;;;;;;;;;6191832;23;20013;-95
2022/07/31 02:08:17;;;;;;;7.07;3.08;;;;;;;;;;6193079;23;20012;-96
2022/07/31 02:10:44;;;;;;;4.32;2.97;;;;;;;;;;6190883;23;20000;-96
2022/07/31 02:13:11;;;;;;;5.15;2.70;;;;;;;;;;6191790;23;20016;-95
2022/07/31 02:15:37;;;;;;;4.82;2.83;;;;;;;;;;6190589;23;20032;-96
2022/07/31 02:18:04;;;;;;;6.38;3.15;;;;;;;;;;6191609;23;20001;-96
2022/07/31 02:20:31;;;;;;;9.57;2.85;;;;;;;;;;6192127;23;20235;-96
2022/07/31 02:22:58;;;;;;;6.07;2.80;;;;;;;;;;6191609;23;20001;-95
2022/07/31 02:25:24;;;;;;;5.03;2.30;;;;;;;;;;6191208;23;20564;-93
2022/07/31 02:27:51;;;;;;;5.78;2.92;;;;;;;;;;6192373;23;20008;-95
2022/07/31 02:30:17;;;;;;;8.77;2.83;;;;;;;;;;6191652;23;20100;-96
2022/07/31 02:32:47;;;;;;;5.45;3.05;;;;;;;;;;6191995;23;20158;-96
2022/07/31 02:35:16;;;;;;;7.13;2.80;;;;;;;;;;6192467;23;20005;-95
2022/07/31 02:37:42;;;;;;;4.75;3.05;;;;;;;;;;6192561;23;20005;-96
2022/07/31 02:40:09;;;;;;;5.00;3.17;;;;;;;;;;6189372;23;20008;-94
2022/07/31 02:42:35;;;;;;;7.30;3.00;;;;;;;;;;6191580;23;20044;-95
2022/07/31 02:45:02;;;;;;;9.73;3.15;;;;;;;;;;6192817;23;20455;-96
2022/07/31 02:47:28;;;;;;;11.15;3.22;;;;;;;;;;6192282;23;20092;-96
2022/07/31 02:49:56;;;;;;;10.90;3.17;;;;;;;;;;6192027;23;20531;-96
2022/07/31 02:52:23;;;;;;;11.48;3.30;;;;;;;;;;6194157;23;20015;-96
2022/07/31 02:54:50;;;;;;;5.65;3.03;;;;;;;;;;6197643;23;20160;-96
2022/07/31 02:57:16;;;;;;;4.70;3.30;;;;;;;;;;6202694;22;20004;-96
2022/07/31 02:59:42;;;;;;;6.13;2.80;;;;;;;;;;6233040;23;20759;-94
2022/07/31 03:02:09;;;;;;;7.00;3.28;;;;;;;;;;6235792;23;20004;-92
2022/07/31 03:04:35;;;;;;;9.02;2.83;;;;;;;;;;6235846;23;20001;-96
2022/07/31 03:07:01;;;;;;;4.53;3.13;;;;;;;;;;6242021;23;20016;-93
2022/07/31 03:09:29;;;;;;;8.25;3.03;;;;;;;;;;6236540;22;20004;-92
2022/07/31 03:12:02;;;;;;;7.07;3.05;;;;;;;;;;6242355;23;20007;-95
2022/07/31 03:14:28;;;;;;;4.30;3.15;;;;;;;;;;6242161;23;20019;-93
2022/07/31 03:16:55;;;;;;;7.20;3.42;;;;;;;;;;6242532;22;20042;-93
2022/07/31 03:19:22;;;;;;;6.32;3.00;;;;;;;;;;6231080;23;20012;-95
2022/07/31 03:21:48;;;;;;;6.20;2.63;;;;;;;;;;6225074;23;20023;-96
2022/07/31 03:24:15;;;;;;;6.13;3.40;;;;;;;;;;6224736;23;20008;-96
2022/07/31 03:26:41;;;;;;;6.43;3.42;;;;;;;;;;6222652;23;20012;-96
2022/07/31 03:29:07;;;;;;;5.28;2.90;;;;;;;;;;6223214;23;20000;-96
2022/07/31 03:31:33;;;;;;;4.20;3.13;;;;;;;;;;6223082;23;20062;-96
2022/07/31 03:34:00;;;;;;;7.93;3.35;;;;;;;;;;6223821;23;20086;-95
2022/07/31 03:36:26;;;;;;;11.38;3.50;;;;;;;;;;6222943;23;20004;-96
2022/07/31 03:38:52;;;;;;;6.05;3.03;;;;;;;;;;6223229;23;20008;-96
2022/07/31 03:41:18;;;;;;;15.02;3.45;;;;;;;;;;6218975;23;20024;-95
2022/07/31 03:43:45;;;;;;;5.82;3.17;;;;;;;;;;6221982;23;20392;-96
2022/07/31 03:46:12;;;;;;;8.50;3.80;;;;;;;;;;6221642;23;20011;-96
2022/07/31 03:48:38;;;;;;;4.72;3.17;;;;;;;;;;6222580;23;20015;-96
2022/07/31 03:51:06;;;;;;;9.10;3.45;;;;;;;;;;6222354;23;20094;-95
2022/07/31 03:53:32;;;;;;;5.18;3.45;;;;;;;;;;6221654;23;20095;-96
2022/07/31 03:55:58;;;;;;;12.52;4.20;;;;;;;;;;6220238;23;20005;-95
2022/07/31 03:58:24;;;;;;;11.95;4.32;;;;;;;;;;6208101;22;20859;-96
2022/07/31 04:00:50;;;;;;;7.90;4.15;;;;;;;;;;6190344;23;20001;-96
2022/07/31 04:03:17;;;;;;;6.95;3.67;;;;;;;;;;6191664;23;20004;-93
2022/07/31 04:05:43;;;;;;;6.18;3.40;;;;;;;;;;6193063;23;20015;-95
2022/07/31 04:08:09;;;;;;;8.70;3.67;;;;;;;;;;6192701;23;20005;-96
2022/07/31 04:10:36;;;;;;;6.78;3.38;;;;;;;;;;6193034;23;20315;-95
2022/07/31 04:13:03;;;;;;;8.13;3.63;;;;;;;;;;6193985;23;20357;-96
2022/07/31 04:15:29;;;;;;;7.53;3.00;;;;;;;;;;6194913;23;20071;-96
2022/07/31 04:17:55;;;;;;;5.80;2.90;;;;;;;;;;6195220;23;20028;-96
2022/07/31 04:20:21;;;;;;;9.90;3.30;;;;;;;;;;6194513;23;20036;-96
2022/07/31 04:22:49;;;;;;;9.20;3.28;;;;;;;;;;6194497;23;20005;-96
2022/07/31 04:25:15;;;;;;;5.57;2.92;;;;;;;;;;6193557;23;20008;-96
2022/07/31 04:27:42;;;;;;;3.90;2.92;;;;;;;;;;6194622;23;20013;-96
2022/07/31 04:30:08;;;;;;;6.70;3.53;;;;;;;;;;6194429;23;20005;-94
2022/07/31 04:32:38;;;;;;;6.95;2.63;;;;;;;;;;6194932;23;20096;-96
2022/07/31 04:35:05;;;;;;;9.88;2.40;;;;;;;;;;6195002;23;20203;-96
2022/07/31 04:37:32;;;;;;;4.57;2.58;;;;;;;;;;6194178;23;20024;-96
2022/07/31 04:39:58;;;;;;;7.78;2.67;;;;;;;;;;6192465;23;20072;-96
2022/07/31 04:42:25;;;;;;;4.18;2.63;;;;;;;;;;6195241;23;20016;-95
2022/07/31 04:44:51;;;;;;;7.00;2.63;;;;;;;;;;6195752;23;20004;-96
2022/07/31 04:47:17;;;;;;;6.57;2.20;;;;;;;;;;6194668;23;20009;-93
2022/07/31 04:49:43;;;;;;;6.90;2.88;;;;;;;;;;6194457;23;20014;-96
2022/07/31 04:52:09;;;;;;;6.57;2.60;;;;;;;;;;6194426;23;20252;-96
2022/07/31 04:54:37;;;;;;;5.78;2.72;;;;;;;;;;6193683;23;20054;-96
2022/07/31 04:57:10;;;;;;;5.55;2.78;;;;;;;;;;6195503;23;20019;-96
2022/07/31 04:59:36;;;;;;;3.90;2.30;;;;;;;;;;6250617;22;20027;-95
2022/07/31 05:02:03;;;;;;;8.90;2.80;;;;;;;;;;6251539;23;20373;-96
2022/07/31 05:04:29;;;;;;;4.22;2.55;;;;;;;;;;6224132;23;20004;-96
2022/07/31 05:06:56;;;;;;;6.47;3.03;;;;;;;;;;6252244;23;20008;-94
2022/07/31 05:09:23;;;;;;;5.90;2.67;;;;;;;;;;6224362;23;20471;-96
2022/07/31 05:11:49;;;;;;;5.63;2.95;;;;;;;;;;6225771;23;20436;-94
2022/07/31 05:14:17;;;;;;;4.95;3.15;;;;;;;;;;6226286;23;20008;-96
2022/07/31 05:16:43;;;;;;;6.22;3.38;;;;;;;;;;6224859;23;20004;-96
2022/07/31 05:19:10;;;;;;;8.85;3.03;;;;;;;;;;6226948;23;20384;-96
2022/07/31 05:21:36;;;;;;;6.90;2.95;;;;;;;;;;6225717;23;20015;-96
2022/07/31 05:24:02;;;;;;;9.98;3.33;;;;;;;;;;6227303;23;20007;-93
2022/07/31 05:26:29;;;;;;;7.00;3.30;;;;;;;;;;6226165;23;20065;-95
2022/07/31 05:28:56;;;;;;;4.65;3.08;;;;;;;;;;6227665;23;20035;-96
2022/07/31 05:31:22;;;;;;;5.18;2.90;;;;;;;;;;6227547;23;20008;-94
2022/07/31 05:33:49;;;;;;;6.82;3.80;;;;;;;;;;6228480;23;20229;-96
2022/07/31 05:36:15;;;;;;;10.45;3.70;;;;;;;;;;6228611;23;20012;-95
2022/07/31 05:38:42;;;;;;;7.82;3.30;;;;;;;;;;6228038;23;20001;-96
2022/07/31 05:41:08;;;;;;;4.55;3.45;;;;;;;;;;6225685;23;20011;-96
2022/07/31 05:43:34;;;;;;;6.82;3.20;;;;;;;;;;6228271;23;20041;-96
2022/07/31 05:46:01;;;;;;;8.10;3.50;;;;;;;;;;6227404;23;20012;-95
2022/07/31 05:48:27;;;;;;;6.22;3.05;;;;;;;;;;6228694;23;20008;-95
2022/07/31 05:50:53;;;;;;;9.02;3.65;;;;;;;;;;6228405;23;20391;-96
2022/07/31 05:53:20;;;;;;;10.18;3.42;;;;;;;;;;6227541;23;20000;-96
2022/07/31 05:55:47;;;;;;;8.77;3.78;;;;;;;;;;6227977;23;20403;-95
2022/07/31 05:58:16;;;;;;;12.80;4.13;;;;;;;;;;6221143;22;20016;-94
2022/07/31 06:00:44;;;;;;;7.75;3.53;;;;;;;;;;6197265;23;20000;-96
2022/07/31 06:03:12;;;;;;;5.55;3.58;;;;;;;;;;6198141;23;20012;-95
2022/07/31 06:05:39;;;;;;;11.35;3.72;;;;;;;;;;6198060;23;20012;-96
2022/07/31 06:08:05;;;;;;;8.32;3.97;;;;;;;;;;6197544;23;20009;-96
2022/07/31 06:10:32;;;;;;;7.25;3.63;;;;;;;;;;6197225;23;20175;-96
2022/07/31 06:12:58;;;;;;;9.30;4.18;;;;;;;;;;6195763;23;20012;-96
2022/07/31 06:15:24;;;;;;;7.43;4.45;;;;;;;;;;6197424;23;20020;-93
2022/07/31 06:17:50;;;;;;;11.18;3.72;;;;;;;;;;6198029;23;20012;-96
2022/07/31 06:20:16;;;;;;;4.88;3.45;;;;;;;;;;6197469;23;20028;-96
2022/07/31 06:22:43;;;;;;;10.30;4.00;;;;;;;;;;6198505;23;20005;-96
2022/07/31 06:25:10;;;;;;;7.72;3.40;;;;;;;;;;6196221;23;20036;-95
2022/07/31 06:27:36;;;;;;;7.30;3.95;;;;;;;;;;6197536;23;20004;-95
2022/07/31 06:30:04;;;;;;;6.65;3.75;;;;;;;;;;6195854;23;20031;-95
2022/07/31 06:32:30;;;;;;;6.20;3.80;;;;;;;;;;6197285;23;20380;-96
2022/07/31 06:34:56;;;;;;;8.02;3.92;;;;;;;;;;6196732;23;20036;-95
2022/07/31 06:37:23;;;;;;;4.35;3.53;;;;;;;;;;6196921;23;20013;-95
2022/07/31 06:39:49;;;;;;;10.25;4.00;;;;;;;;;;6193878;23;20043;-96
2022/07/31 06:42:22;;;;;;;11.07;4.13;;;;;;;;;;6196760;23;20024;-96
2022/07/31 06:44:48;;;;;;;6.07;3.90;;;;;;;;;;6196730;23;20435;-96
2022/07/31 06:47:15;;;;;;;5.95;3.75;;;;;;;;;;6198054;23;20000;-96
2022/07/31 06:49:41;;;;;;;6.53;4.20;;;;;;;;;;6196622;23;20044;-96
2022/07/31 06:52:07;;;;;;;6.57;3.90;;;;;;;;;;6196082;23;20009;-96
2022/07/31 06:54:33;;;;;;;15.40;4.60;;;;;;;;;;6196039;23;20009;-95
2022/07/31 06:56:59;;;;;;;7.82;4.75;;;;;;;;;;6197446;23;20008;-96
2022/07/31 06:59:32;;;;;;;8.32;4.68;;;;;;;;;;6204815;22;20077;-95
2022/07/31 07:01:59;;;;;;;15.52;5.20;;;;;;;;;;6225843;23;20051;-96
2022/07/31 07:04:26;;;;;;;6.30;3.50;;;;;;;;;;6197429;23;20061;-96
2022/07/31 07:06:52;;;;;;;8.10;4.25;;;;;;;;;;6199726;23;20000;-95
2022/07/31 07:09:18;;;;;;;9.02;4.13;;;;;;;;;;6197593;23;20005;-94
2022/07/31 07:11:46;;;;;;;10.07;4.47;;;;;;;;;;6197617;23;20035;-94
2022/07/31 07:14:14;;;;;;;9.52;4.30;;;;;;;;;;6197307;23;20009;-94
2022/07/31 07:16:40;;;;;;;6.38;4.50;;;;;;;;;;6198827;23;20066;-94
2022/07/31 07:19:06;;;;;;;9.65;5.05;;;;;;;;;;6199469;23;20000;-96
2022/07/31 07:21:32;;;;;;;7.32;5.45;;;;;;;;;;6200103;23;20001;-95
2022/07/31 07:23:58;;;;;;;7.30;4.75;;;;;;;;;;6199787;23;20056;-96
2022/07/31 07:26:24;;;;;;;7.35;4.57;;;;;;;;;;6199641;23;20036;-96
2022/07/31 07:28:54;;;;;;;7.63;4.57;;;;;;;;;;6200036;23;20016;-96
2022/07/31 07:31:21;;;;;;;7.47;4.30;;;;;;;;;;6227550;23;20036;-96
2022/07/31 07:33:47;;;;;;;9.85;4.85;;;;;;;;;;6199832;23;20096;-95
2022/07/31 07:36:13;;;;;;;9.98;4.68;;;;;;;;;;6201881;23;20012;-95
2022/07/31 07:38:40;;;;;;;12.95;4.45;;;;;;;;;;6202795;23;19997;-96
2022/07/31 07:41:08;;;;;;;7.10;4.75;;;;;;;;;;6201417;23;20000;-95
2022/07/31 07:43:34;;;;;;;8.00;4.78;;;;;;;;;;6188132;23;20008;-91
2022/07/31 07:46:00;;;;;;;9.98;4.55;;;;;;;;;;6187658;23;20050;-87
2022/07/31 07:48:26;;;;;;;14.23;4.75;;;;;;;;;;6188434;23;20009;-90
2022/07/31 07:50:52;;;;;;;6.47;4.30;;;;;;;;;;6194760;23;20396;-90
2022/07/31 07:53:18;;;;;;;8.63;4.70;;;;;;;;;;6196032;23;20130;-90
2022/07/31 07:55:44;;;;;;;11.45;4.70;;;;;;;;;;6198180;23;20012;-91
2022/07/31 07:58:10;;;;;;;6.80;4.80;;;;;;;;;;6201541;22;20036;-89
2022/07/31 08:00:36;;;;;;;9.27;6.20;;;;;;;;;;6230242;23;20008;-91
2022/07/31 08:03:03;;;;;;;9.32;5.45;;;;;;;;;;6225788;23;20053;-89
2022/07/31 08:05:29;;;;;;;9.75;5.60;;;;;;;;;;6223572;23;20015;-89
2022/07/31 08:07:55;;;;;;;9.05;5.07;;;;;;;;;;6222790;23;20486;-91
2022/07/31 08:10:21;;;;;;;10.52;5.75;;;;;;;;;;6216953;23;20016;-89
2022/07/31 08:12:47;;;;;;;7.57;4.53;;;;;;;;;;6216374;23;20063;-91
2022/07/31 08:15:13;;;;;;;8.40;4.85;;;;;;;;;;6216301;23;20091;-91
2022/07/31 08:17:39;;;;;;;10.25;5.82;;;;;;;;;;6215676;23;20008;-92
2022/07/31 08:20:05;;;;;;;10.13;5.53;;;;;;;;;;6215922;23;20061;-91
2022/07/31 08:22:32;;;;;;;15.63;5.80;;;;;;;;;;6215844;23;20004;-91
2022/07/31 08:24:58;;;;;;;12.88;6.10;;;;;;;;;;6214889;23;20004;-90
2022/07/31 08:27:24;;;;;;;10.25;5.65;;;;;;;;;;6215962;23;20039;-91
2022/07/31 08:30:01;;;;;;;19.90;6.10;;;;;;;;;;6215535;23;20012;-91
2022/07/31 08:32:27;;;;;;;10.18;5.95;;;;;;;;;;6215388;23;20008;-90
2022/07/31 08:34:54;;;;;;;7.05;5.35;;;;;;;;;;6215249;23;20012;-91
2022/07/31 08:37:21;;;;;;;13.30;5.82;;;;;;;;;;6214746;23;20012;-91
2022/07/31 08:39:50;;;;;;;10.60;5.40;;;;;;;;;;6212901;23;20095;-91
2022/07/31 08:42:17;;;;;;;12.20;6.28;;;;;;;;;;6215500;23;20070;-90
2022/07/31 08:44:43;;;;;;;11.18;6.72;;;;;;;;;;6241250;23;19996;-91
2022/07/31 08:47:10;;;;;;;7.95;5.30;;;;;;;;;;6214250;23;20027;-91
2022/07/31 08:49:39;;;;;;;10.25;5.43;;;;;;;;;;6213943;23;20086;-91
2022/07/31 08:52:07;;;;;;;9.90;4.72;;;;;;;;;;6214845;23;20012;-90
2022/07/31 08:54:34;;;;;;;8.18;5.22;;;;;;;;;;6213461;23;20095;-91
2022/07/31 08:57:00;;;;;;;13.65;5.40;;;;;;;;;;6215051;23;20039;-91
2022/07/31 08:59:26;;;;;;;16.67;5.63;;;;;;;;;;6200234;22;20456;-92
2022/07/31 09:01:55;;;;;;;8.80;5.38;;;;;;;;;;6184792;23;20005;-91
2022/07/31 09:04:22;;;;;;;11.40;6.93;;;;;;;;;;6184557;23;20004;-91
2022/07/31 09:06:48;;;;;;;8.93;5.57;;;;;;;;;;6184396;23;20149;-91
2022/07/31 09:09:15;;;;;;;7.47;4.95;;;;;;;;;;6184681;23;20035;-91
2022/07/31 09:11:53;;;;;;;10.43;5.68;;;;;;;;;;6184153;23;20009;-91
2022/07/31 09:14:29;;;;;;;8.00;6.03;;;;;;;;;;6184535;23;20009;-90
2022/07/31 09:16:56;;;;;;;13.32;6.32;;;;;;;;;;6184288;23;20009;-90
2022/07/31 09:19:23;;;;;;;14.27;7.55;;;;;;;;;;6183447;23;20011;-91
2022/07/31 09:21:50;;;;;;;14.68;6.95;;;;;;;;;;6183974;23;20004;-91
2022/07/31 09:24:27;;;;;;;16.05;7.82;;;;;;;;;;6183710;23;20094;-91
2022/07/31 09:27:01;;;;;;;21.08;8.85;;;;;;;;;;6210510;23;20000;-90
2022/07/31 09:29:34;;;;;;;21.98;11.63;;;;;;;;;;6184179;23;20095;-91
2022/07/31 09:32:09;;;;;;;15.77;9.60;;;;;;;;;;6209378;23;20012;-91
2022/07/31 09:34:35;;;;;;;16.00;10.00;;;;;;;;;;6184433;23;20500;-91
2022/07/31 09:37:28;;;;;;;20.88;10.23;;;;;;;;;;6209151;23;20293;-91
2022/07/31 09:39:55;;;;;;;24.10;11.48;;;;;;;;;;6178537;23;20079;-91
2022/07/31 09:42:22;;;;;;;19.35;10.30;;;;;;;;;;6209707;23;20075;-91
2022/07/31 09:44:48;;;;;;;20.67;11.80;;;;;;;;;;6208968;23;20008;-90
2022/07/31 09:47:29;;;;;;;23.52;11.18;;;;;;;;;;6208621;23;20453;-91
2022/07/31 09:49:59;;;;;;;23.40;10.98;;;;;;;;;;6209036;23;20008;-91
2022/07/31 09:52:26;;;;;;;19.35;10.77;;;;;;;;;;6208921;23;20023;-90
2022/07/31 09:55:04;;;;;;;23.75;13.75;;;;;;;;;;6208001;23;20012;-91
2022/07/31 09:57:31;;;;;;;29.52;13.27;;;;;;;;;;6208747;23;20004;-90
2022/07/31 09:59:57;;;;;;;22.73;12.55;;;;;;;;;;6231111;22;20016;-91
2022/07/31 10:02:26;;;;;;;22.10;12.18;;;;;;;;;;6213551;23;20022;-91
2022/07/31 10:04:54;;;;;;;21.95;12.57;;;;;;;;;;6213676;23;20086;-91
2022/07/31 10:07:24;;;;;;;24.98;13.75;;;;;;;;;;6213807;23;20432;-90
2022/07/31 10:09:50;;;;;;;24.17;13.10;;;;;;;;;;6213089;23;20012;-91
2022/07/31 10:12:16;;;;;;;20.95;12.30;;;;;;;;;;6214323;23;20008;-90
2022/07/31 10:14:43;;;;;;;22.90;13.45;;;;;;;;;;6213768;23;20004;-91
2022/07/31 10:17:10;;;;;;;24.52;13.18;;;;;;;;;;6214022;23;20452;-91
2022/07/31 10:19:37;;;;;;;22.73;13.48;;;;;;;;;;6214044;23;20000;-91
2022/07/31 10:22:04;;;;;;;25.55;13.20;;;;;;;;;;6240475;23;20000;-91
2022/07/31 10:24:36;;;;;;;28.20;15.80;;;;;;;;;;6240132;23;19996;-92
2022/07/31 10:27:09;;;;;;;32.53;14.00;;;;;;;;;;6213351;23;20389;-91
2022/07/31 10:29:36;;;;;;;25.15;13.65;;;;;;;;;;6240908;23;20012;-90
2022/07/31 10:32:02;;;;;;;20.52;13.90;;;;;;;;;;6213078;23;20035;-90
2022/07/31 10:34:28;;;;;;;25.13;14.60;;;;;;;;;;6213422;23;20015;-91
2022/07/31 10:36:57;;;;;;;32.83;14.98;;;;;;;;;;6212977;23;20031;-90
2022/07/31 10:39:30;;;;;;;25.52;14.95;;;;;;;;;;6211162;23;20340;-90
2022/07/31 10:42:15;;;;;;;25.63;15.02;;;;;;;;;;6213418;23;20004;-90
2022/07/31 10:44:44;;;;;;;21.38;13.30;;;;;;;;;;6212888;23;20444;-90
2022/07/31 10:47:12;;;;;;;29.70;13.80;;;;;;;;;;6212983;23;20012;-90
2022/07/31 10:49:47;;;;;;;22.83;13.45;;;;;;;;;;6213078;23;20344;-89
2022/07/31 10:52:31;;;;;;;20.15;13.68;;;;;;;;;;6214666;23;20346;-90
2022/07/31 10:55:00;;;;;;;25.52;13.43;;;;;;;;;;6212740;23;20443;-91
2022/07/31 10:57:26;;;;;;;22.50;13.18;;;;;;;;;;6212990;23;20009;-90
2022/07/31 10:59:59;;;;;;;28.98;15.30;;;;;;;;;;6213951;22;20066;-90
2022/07/31 11:02:36;;;;;;;30.23;15.18;;;;;;;;;;6213003;23;20043;-91
2022/07/31 11:05:12;;;;;;;28.13;14.68;;;;;;;;;;6213914;23;20004;-91
2022/07/31 11:07:39;;;;;;;28.92;14.98;;;;;;;;;;6213182;23;20099;-92
2022/07/31 11:10:09;;;;;;;27.60;15.32;;;;;;;;;;6212966;23;20425;-92
2022/07/31 11:12:35;;;;;;;27.23;15.52;;;;;;;;;;6214407;23;20014;-95
2022/07/31 11:15:01;;;;;;;30.05;16.52;;;;;;;;;;6215961;23;20562;-96
2022/07/31 11:17:32;;;;;;;49.20;26.48;;;;;;;;;;6216674;23;20008;-96
2022/07/31 11:19:58;;;;;;;32.63;17.48;;;;;;;;;;6216580;23;20004;-96
2022/07/31 11:22:25;;;;;;;32.20;16.67;;;;;;;;;;6243171;23;20011;-96
2022/07/31 11:24:55;;;;;;;37.92;18.02;;;;;;;;;;6217803;23;20004;-96
2022/07/31 11:27:31;;;;;;;28.52;15.65;;;;;;;;;;6219679;23;20008;-96
2022/07/31 11:30:03;;;;;;;28.55;16.08;;;;;;;;;;6218611;23;20378;-96
2022/07/31 11:32:29;;;;;;;31.73;17.38;;;;;;;;;;6217854;23;20008;-96
2022/07/31 11:34:56;;;;;;;29.42;17.40;;;;;;;;;;6218464;23;20011;-96
2022/07/31 11:37:23;;;;;;;36.97;17.02;;;;;;;;;;6228946;23;20008;-96
2022/07/31 11:39:51;;;;;;;28.80;16.77;;;;;;;;;;6232351;23;20026;-96
2022/07/31 11:42:18;;;;;;;38.47;17.83;;;;;;;;;;6234978;23;20008;-96
2022/07/31 11:44:44;;;;;;;34.15;16.85;;;;;;;;;;6237606;23;20060;-96
2022/07/31 11:47:10;;;;;;;35.42;18.23;;;;;;;;;;6237955;23;20052;-96
2022/07/31 11:49:37;;;;;;;29.38;17.75;;;;;;;;;;6230670;23;20000;-96
2022/07/31 11:52:04;;;;;;;32.45;18.13;;;;;;;;;;6221727;23;20047;-96
2022/07/31 11:54:30;;;;;;;34.17;16.33;;;;;;;;;;6221796;23;20008;-96
2022/07/31 11:56:57;;;;;;;32.55;16.20;;;;;;;;;;6222323;23;20008;-96
2022/07/31 11:59:33;;;;;;;34.47;16.67;;;;;;;;;;6229003;22;20019;-96
2022/07/31 12:01:58;;;;;;;;;;;;;;;;;;6225301;23;20091;-95
2022/07/31 12:04:24;;;;;;;29.23;17.20;;;;;;;;;;6229149;23;19900;-94
2022/07/31 12:06:55;;;;;;;26.52;16.85;;;;;;;;;;6232779;23;20008;-94
2022/07/31 12:09:21;;;;;;;28.63;15.35;;;;;;;;;;6234416;23;19999;-94
2022/07/31 12:11:47;;;;;;;31.52;16.92;;;;;;;;;;6238839;23;20004;-93
2022/07/31 12:14:13;;;;;;;32.15;18.48;;;;;;;;;;6240349;23;20001;-94
2022/07/31 12:16:43;;;;;;;35.42;17.85;;;;;;;;;;6242439;23;20012;-92
2022/07/31 12:19:09;;;;;;;29.13;13.80;;;;;;;;;;6236064;23;20000;-91
2022/07/31 12:21:37;;;;;;;29.00;16.67;;;;;;;;;;6233249;23;20007;-92
2022/07/31 12:24:10;;;;;;;32.22;17.15;;;;;;;;;;6223209;23;20004;-92
2022/07/31 12:26:36;;;;;;;29.20;16.60;;;;;;;;;;6218433;23;20307;-92
2022/07/31 12:29:07;;;;;;;37.65;19.50;;;;;;;;;;6217642;23;20008;-92
2022/07/31 12:32:02;;;;;;;33.25;18.75;;;;;;;;;;6217827;23;20012;-92
2022/07/31 12:34:29;;;;;;;31.48;17.00;;;;;;;;;;6197874;23;20310;-92
2022/07/31 12:37:03;;;;;;;29.50;15.65;;;;;;;;;;6217060;23;20008;-92
2022/07/31 12:39:29;;;;;;;31.25;17.05;;;;;;;;;;6215960;23;20015;-93
2022/07/31 12:41:56;;;;;;;35.30;16.27;;;;;;;;;;6218350;23;20039;-93
2022/07/31 12:44:22;;;;;;;29.83;14.50;;;;;;;;;;6218480;23;20432;-94
2022/07/31 12:46:48;;;;;;;27.55;15.00;;;;;;;;;;6218416;23;20008;-94
2022/07/31 12:49:14;;;;;;;28.13;16.63;;;;;;;;;;6218567;23;20083;-94
2022/07/31 12:51:41;;;;;;;26.85;14.10;;;;;;;;;;6218778;23;20070;-94
2022/07/31 12:54:08;;;;;;;16.70;9.85;;;;;;;;;;6219810;23;20062;-95
2022/07/31 12:56:41;;;;;;;23.58;11.32;;;;;;;;;;6194247;23;20099;-95
2022/07/31 12:59:07;;;;;;;25.45;13.45;;;;;;;;;;6220485;22;20012;-94
2022/07/31 13:01:34;;;;;;;16.40;10.55;;;;;;;;;;6219752;23;20008;-95
2022/07/31 13:04:00;;;;;;;27.48;14.90;;;;;;;;;;6218951;23;20007;-95
2022/07/31 13:06:27;;;;;;;19.83;12.45;;;;;;;;;;6218213;23;20011;-95
2022/07/31 13:08:53;;;;;;;28.58;14.90;;;;;;;;;;6218646;23;20107;-95
2022/07/31 13:11:19;;;;;;;28.10;14.60;;;;;;;;;;6219024;23;20019;-95
2022/07/31 13:13:45;;;;;;;34.65;15.90;;;;;;;;;;6218874;23;20099;-95
2022/07/31 13:16:11;;;;;;;27.45;13.55;;;;;;;;;;6219289;23;20044;-95
2022/07/31 13:18:37;;;;;;;31.50;16.20;;;;;;;;;;6219149;23;19996;-95
2022/07/31 13:21:04;;;;;;;32.20;15.75;;;;;;;;;;6220223;23;20008;-95
2022/07/31 13:23:30;;;;;;;34.05;17.02;;;;;;;;;;6219510;23;20004;-95
2022/07/31 13:25:57;;;;;;;36.20;16.23;;;;;;;;;;6219989;23;20008;-95
2022/07/31 13:28:24;;;;;;;38.33;18.35;;;;;;;;;;6246689;23;20507;-95
2022/07/31 13:30:50;;;;;;;34.90;17.20;;;;;;;;;;6219856;23;20004;-95
2022/07/31 13:33:16;;;;;;;33.70;17.70;;;;;;;;;;6220031;23;20054;-93
2022/07/31 13:35:42;;;;;;;26.25;12.85;;;;;;;;;;6220172;23;20012;-95
2022/07/31 13:38:08;;;;;;;41.95;16.52;;;;;;;;;;6220614;23;20506;-96
2022/07/31 13:43:20;;;;;;;25.02;13.88;;;;;;;;;;6246024;23;20131;-95
2022/07/31 13:45:49;;;;;;;28.23;15.60;;;;;;;;;;6219937;23;20008;-94
2022/07/31 13:48:15;;;;;;;24.00;11.25;;;;;;;;;;6218328;23;20483;-94
2022/07/31 13:50:41;;;;;;;28.90;14.05;;;;;;;;;;6217267;23;20462;-95
2022/07/31 13:53:07;;;;;;;28.38;12.98;;;;;;;;;;6217629;23;20015;-95
2022/07/31 13:55:34;;;;;;;30.33;12.60;;;;;;;;;;6215570;23;20500;-94
2022/07/31 13:58:00;;;;;;;21.15;10.50;;;;;;;;;;6191251;23;20054;-93
2022/07/31 14:00:26;;;;;;;10.55;6.15;;;;;;;;;;6219183;22;20019;-94
2022/07/31 14:02:52;;;;;;;11.20;5.80;;;;;;;;;;6217409;23;20436;-94
2022/07/31 14:05:18;;;;;;;8.80;5.47;;;;;;;;;;6217199;23;20011;-94
2022/07/31 14:07:44;;;;;;;9.07;5.95;;;;;;;;;;6216739;23;20004;-94
2022/07/31 14:10:10;;;;;;;9.15;5.22;;;;;;;;;;6216568;23;20429;-94
2022/07/31 14:12:38;;;;;;;18.48;6.63;;;;;;;;;;6217896;23;20055;-95
2022/07/31 14:15:04;;;;;;;12.77;5.57;;;;;;;;;;6218526;23;20376;-96
2022/07/31 14:17:30;;;;;;;11.93;6.45;;;;;;;;;;6218219;23;20012;-96
2022/07/31 14:19:56;;;;;;;12.43;6.65;;;;;;;;;;6218115;23;20008;-96
2022/07/31 14:22:22;;;;;;;15.30;6.10;;;;;;;;;;6218855;23;20571;-96
2022/07/31 14:24:49;;;;;;;12.43;6.70;;;;;;;;;;6218757;23;20008;-96
2022/07/31 14:27:15;;;;;;;9.95;5.95;;;;;;;;;;6219335;23;20058;-96
2022/07/31 14:29:41;;;;;;;14.23;5.38;;;;;;;;;;6219737;23;20004;-96
2022/07/31 14:32:07;;;;;;;12.13;5.50;;;;;;;;;;6220341;23;20482;-96
2022/07/31 14:34:33;;;;;;;7.43;4.57;;;;;;;;;;6220490;23;20344;-96
2022/07/31 14:36:59;;;;;;;7.88;4.43;;;;;;;;;;6220322;23;20030;-96
2022/07/31 14:39:25;;;;;;;8.23;3.60;;;;;;;;;;6219407;23;20011;-96